首页
METAR-TAF:

METAR-TAF

机场 :

特里凡得琅国际机场

特里凡得琅, 印度

纬度: 08-28N, 经度: 076-57E, 海拔: 4米

当前天气观测

该预报发布于36分钟前的02:30 UTC
静风
温度 26°C
湿度 94%
气压 1007 hPa
能見度: 3000
散云层高于800英尺
散云层高于1200英尺
少量云层高于2500英尺, 积雨云.
多云层高于8000英尺
小毛毛雨,

METAR: VOTV 220230Z 00000KT 3000 -DZ SCT008 SCT012 FEW025CB BKN080 26/25 Q1007 NOSIG

时间: 08:36 (03:06 UTC)

预报

该预报发布于1小时和6分钟前的02:00 UTC
预报有效从22日的 03点(UTC)到 22日的 12点(UTC)
风速5节,风向西转西北
能見度: 3000
散云层高于800英尺
散云层高于1500英尺
多云层高于8000英尺
雨, 轻雾
短暂存在
从 22日的 06点(UTC)到 22日的 10点(UTC)
风速10节,风向西北
能見度: 2000
少量云层高于800英尺
散云层高于1200英尺
少量云层高于2500英尺, 积雨云.
阴天层高于8000英尺
雷暴, 雨, 轻雾,

TAF: VOTV 220200Z 2203/2212 29005KT 3000 RA BR SCT008 SCT015 BKN080 TEMPO 2206/2210 31010KT 2000 TSRA BR FEW008 SCT012 FEW025CB OVC080

超过4000个机场的气象观测和天气预报(METAR&TAF报告)。

可查询的气象台以黄色和红色小点在地图上表示。

将鼠标移到小点上方,可查看气象台名称。

然后点击查看天气观测和预报。

如需切换地图:点击带黑十字的绿色按钮放大地图;点击带横线的绿色按钮缩小地图;或者点击绿色箭头查看邻近地区的地图。


METAR-TAF: